Time;durP1;ratioP1;P1;durP2;ratioP2;P2;SDS_P1;SDS_P2;PMS_P1;PMS_P2;Temp;Humidity;BMP_temperature;BMP_pressure;BME280_temperature;BME280_humidity;BME280_pressure;Samples;Min_cycle;Max_cycle;Signal;HPM_P1;HPM_P2
2022/05/19 00:01:06;;;;;;;39.53;28.63;;;15.70;99.90;;;;;;5012730;28;20120;-44
2022/05/19 00:03:34;;;;;;;36.75;29.58;;;15.90;99.90;;;;;;5012384;28;20050;-45
2022/05/19 00:06:01;;;;;;;39.13;29.95;;;15.70;99.90;;;;;;5012427;28;20054;-45
2022/05/19 00:08:28;;;;;;;36.80;30.23;;;15.70;99.90;;;;;;5012127;28;20053;-45
2022/05/19 00:10:55;;;;;;;41.13;29.92;;;15.70;99.90;;;;;;5011967;28;20046;-45
2022/05/19 00:13:22;;;;;;;44.05;31.15;;;15.80;99.90;;;;;;5011968;28;20042;-45
2022/05/19 00:15:48;;;;;;;39.10;31.77;;;15.70;99.90;;;;;;5012044;28;20042;-44
2022/05/19 00:18:13;;;;;;;45.55;33.50;;;15.70;99.90;;;;;;5011417;28;20045;-46
2022/05/19 00:20:40;;;;;;;43.45;33.53;;;15.70;99.90;;;;;;5011848;28;20042;-45
2022/05/19 00:23:06;;;;;;;43.50;34.22;;;15.70;99.90;;;;;;5011676;28;20053;-45
2022/05/19 00:25:32;;;;;;;45.17;34.80;;;15.80;99.90;;;;;;5011722;28;20042;-46
2022/05/19 00:27:57;;;;;;;41.58;34.08;;;15.80;99.90;;;;;;5011605;28;20041;-46
2022/05/19 00:30:23;;;;;;;41.10;32.53;;;15.80;99.90;;;;;;5011285;28;20638;-46
2022/05/19 00:32:49;;;;;;;40.60;33.75;;;15.80;99.90;;;;;;5011722;28;20116;-46
2022/05/19 00:35:15;;;;;;;43.58;34.28;;;15.80;99.90;;;;;;5011407;28;20108;-46
2022/05/19 00:37:41;;;;;;;42.97;35.00;;;15.80;99.90;;;;;;5010629;28;20485;-44
2022/05/19 00:40:09;;;;;;;44.38;33.25;;;15.90;99.90;;;;;;5011381;28;20048;-44
2022/05/19 00:42:43;;;;;;;46.63;36.03;;;15.80;99.90;;;;;;5026221;28;20132;-47
2022/05/19 00:45:13;;;;;;;50.30;39.15;;;15.80;99.90;;;;;;5010308;28;20123;-45
2022/05/19 00:47:50;;;;;;;49.33;40.00;;;15.80;99.90;;;;;;5010711;28;20069;-45
2022/05/19 00:50:40;;;;;;;49.00;38.78;;;15.80;99.90;;;;;;5011056;28;20498;-45
2022/05/19 00:53:12;;;;;;;52.35;41.15;;;15.80;99.90;;;;;;5011222;28;20133;-45
2022/05/19 00:55:46;;;;;;;49.72;38.88;;;15.70;99.90;;;;;;5010994;28;20046;-45
2022/05/19 00:58:31;;;;;;;50.00;38.65;;;15.60;99.90;;;;;;5010935;28;20521;-45
2022/05/19 01:00:57;;;;;;;60.17;45.80;;;15.50;99.90;;;;;;5010745;28;20490;-45
2022/05/19 01:03:25;;;;;;;63.63;47.85;;;15.40;99.90;;;;;;5010797;28;20041;-46
2022/05/19 01:05:55;;;;;;;71.78;51.92;;;15.30;99.90;;;;;;5009846;28;20057;-45
2022/05/19 01:08:30;;;;;;;73.00;53.78;;;15.30;99.90;;;;;;5010215;28;20053;-46
2022/05/19 01:10:57;;;;;;;68.07;53.80;;;15.20;99.90;;;;;;5011264;28;20064;-45
2022/05/19 01:13:29;;;;;;;67.63;55.83;;;15.20;99.90;;;;;;5010658;28;20485;-46
2022/05/19 01:15:55;;;;;;;;;;;15.40;99.90;;;;;;5011421;28;20482;-44
2022/05/19 01:18:24;;;;;;;72.60;55.40;;;15.10;99.90;;;;;;5010157;28;19975;-45
2022/05/19 01:20:49;;;;;;;71.82;55.17;;;15.00;99.90;;;;;;5010500;28;20784;-44
2022/05/19 01:23:30;;;;;;;83.25;57.00;;;15.00;99.90;;;;;;5009941;28;20088;-46
2022/05/19 01:26:27;;;;;;;74.38;57.25;;;14.90;99.90;;;;;;5010470;28;20576;-45
2022/05/19 01:28:58;;;;;;;75.75;56.58;;;14.80;99.90;;;;;;5001684;28;20062;-45
2022/05/19 01:31:33;;;;;;;74.78;58.85;;;14.80;99.90;;;;;;5010236;28;20046;-45
2022/05/19 01:34:00;;;;;;;77.30;58.22;;;14.80;99.90;;;;;;5010301;28;20049;-44
2022/05/19 01:36:26;;;;;;;83.50;59.55;;;14.80;99.90;;;;;;5010160;28;20412;-44
2022/05/19 01:39:02;;;;;;;77.95;58.00;;;15.00;99.90;;;;;;5009628;28;20038;-44
2022/05/19 01:42:05;;;;;;;79.60;59.80;;;14.90;99.90;;;;;;5009853;28;20042;-45
2022/05/19 01:45:00;;;;;;;81.97;57.67;;;14.80;99.90;;;;;;5008512;28;20049;-45
2022/05/19 01:47:36;;;;;;;76.97;58.08;;;14.80;99.90;;;;;;5009766;28;20066;-44
2022/05/19 01:50:15;;;;;;;81.45;59.03;;;14.70;99.90;;;;;;5010219;28;20128;-46
2022/05/19 01:52:47;;;;;;;83.40;60.83;;;14.80;99.90;;;;;;5009865;28;20448;-45
2022/05/19 01:55:24;;;;;;;76.68;57.92;;;14.60;99.90;;;;;;5010012;28;20049;-44
2022/05/19 01:58:25;;;;;;;76.70;57.75;;;14.50;99.90;;;;;;5010256;28;20168;-44
2022/05/19 02:00:54;;;;;;;81.70;65.57;;;14.20;99.90;;;;;;5009840;28;20049;-44
2022/05/19 02:03:20;;;;;;;80.30;64.82;;;14.30;99.90;;;;;;5010106;28;20050;-45
2022/05/19 02:06:02;;;;;;;89.95;65.10;;;15.30;99.90;;;;;;5010210;28;20046;-45
2022/05/19 02:08:42;;;;;;;;;;;14.40;99.90;;;;;;5010192;28;20046;-45
2022/05/19 02:11:14;;;;;;;89.03;63.47;;;14.40;99.90;;;;;;5009914;28;20280;-45
2022/05/19 02:13:41;;;;;;;88.03;64.57;;;14.50;99.90;;;;;;5009283;28;20077;-44
2022/05/19 02:16:13;;;;;;;88.50;64.90;;;14.70;99.90;;;;;;5009998;28;20116;-46
2022/05/19 02:18:40;;;;;;;92.00;65.20;;;14.60;99.90;;;;;;5009367;28;20046;-45
2022/05/19 02:21:07;;;;;;;84.68;65.13;;;14.60;99.90;;;;;;5009727;28;20057;-46
2022/05/19 02:23:34;;;;;;;82.50;64.97;;;14.30;99.90;;;;;;5009518;28;20045;-49
2022/05/19 02:26:00;;;;;;;89.65;66.63;;;14.70;99.90;;;;;;5008189;28;20058;-46
2022/05/19 02:28:34;;;;;;;90.22;67.97;;;14.40;99.90;;;;;;5009339;28;20137;-44
2022/05/19 02:31:00;;;;;;;91.45;68.15;;;14.50;99.90;;;;;;5009579;28;20080;-45
2022/05/19 02:33:27;;;;;;;92.18;68.40;;;14.30;99.90;;;;;;5009190;28;20522;-44
2022/05/19 02:35:53;;;;;;;96.00;69.40;;;14.20;99.90;;;;;;5009623;28;20041;-45
2022/05/19 02:38:20;;;;;;;93.38;67.25;;;14.20;99.90;;;;;;5009002;28;20089;-46
2022/05/19 02:40:47;;;;;;;96.38;68.03;;;14.30;99.90;;;;;;5008867;28;20037;-45
2022/05/19 02:43:14;;;;;;;100.53;69.10;;;14.30;99.90;;;;;;5009426;28;20808;-44
2022/05/19 02:45:41;;;;;;;84.93;64.40;;;14.30;99.90;;;;;;5009208;28;20130;-44
2022/05/19 02:48:08;;;;;;;94.55;68.03;;;14.20;99.90;;;;;;5008834;28;20068;-45
2022/05/19 02:50:35;;;;;;;90.68;66.47;;;14.20;99.90;;;;;;5009302;28;20044;-44
2022/05/19 02:53:00;;;;;;;89.55;66.32;;;14.40;99.90;;;;;;5009204;28;20049;-45
2022/05/19 02:55:26;;;;;;;92.88;68.18;;;14.10;99.90;;;;;;5008965;28;20129;-44
2022/05/19 02:57:52;;;;;;;87.78;63.15;;;14.80;99.90;;;;;;5009375;28;20080;-44
2022/05/19 03:00:22;;;;;;;89.00;65.28;;;14.10;99.90;;;;;;5008675;28;20033;-44
2022/05/19 03:02:49;;;;;;;92.45;65.53;;;14.10;99.90;;;;;;5009005;28;20045;-45
2022/05/19 03:05:20;;;;;;;95.30;65.95;;;14.00;99.90;;;;;;5008932;28;20441;-44
2022/05/19 03:07:46;;;;;;;91.88;65.97;;;14.00;99.90;;;;;;5008611;28;20482;-44
2022/05/19 03:10:12;;;;;;;89.95;67.05;;;14.00;99.90;;;;;;5008849;28;20050;-44
2022/05/19 03:12:38;;;;;;;91.43;68.05;;;13.90;99.90;;;;;;5009016;28;20115;-45
2022/05/19 03:15:05;;;;;;;86.88;63.92;;;13.90;99.90;;;;;;5009259;28;20037;-44
2022/05/19 03:17:31;;;;;;;102.68;65.50;;;13.90;99.90;;;;;;5009233;28;20046;-44
2022/05/19 03:19:57;;;;;;;100.05;66.72;;;13.60;99.90;;;;;;5008960;28;20046;-45
2022/05/19 03:22:25;;;;;;;101.57;69.60;;;13.90;99.90;;;;;;5009158;28;20046;-44
2022/05/19 03:24:51;;;;;;;111.72;69.88;;;13.90;99.90;;;;;;5008468;28;20057;-46
2022/05/19 03:27:19;;;;;;;108.40;72.22;;;13.80;99.90;;;;;;5008920;28;20046;-47
2022/05/19 03:29:49;;;;;;;109.72;73.28;;;14.00;99.90;;;;;;5007244;28;20424;-45
2022/05/19 03:32:15;;;;;;;106.15;72.93;;;14.00;99.90;;;;;;5011645;28;20693;-46
2022/05/19 03:34:40;;;;;;;106.40;71.30;;;13.90;99.90;;;;;;5012708;28;20054;-44
2022/05/19 03:37:06;;;;;;;106.75;75.30;;;14.00;99.90;;;;;;5012548;28;20046;-45
2022/05/19 03:39:33;;;;;;;104.25;72.80;;;14.10;99.90;;;;;;5012596;28;20057;-44
2022/05/19 03:41:59;;;;;;;103.00;74.10;;;14.00;99.90;;;;;;5013203;28;20484;-44
2022/05/19 03:44:25;;;;;;;104.68;70.90;;;14.10;99.90;;;;;;5012915;28;20123;-44
2022/05/19 03:46:51;;;;;;;111.72;76.82;;;14.20;99.90;;;;;;5012645;28;20105;-44
2022/05/19 03:49:17;;;;;;;102.32;74.20;;;14.20;99.90;;;;;;5012353;28;20136;-43
2022/05/19 03:51:43;;;;;;;99.95;72.50;;;14.30;99.90;;;;;;5011975;28;20489;-44
2022/05/19 03:54:09;;;;;;;99.57;71.72;;;14.30;99.90;;;;;;5010906;28;20078;-44
2022/05/19 03:56:35;;;;;;;100.32;73.95;;;14.60;99.90;;;;;;5012161;28;20548;-44
2022/05/19 03:59:01;;;;;;;104.13;74.63;;;14.20;99.90;;;;;;5011738;28;20129;-44
2022/05/19 04:01:27;;;;;;;99.20;73.05;;;14.30;99.90;;;;;;5011770;28;20042;-44
2022/05/19 04:03:54;;;;;;;103.50;73.50;;;14.30;99.90;;;;;;5012125;28;20489;-44
2022/05/19 04:06:19;;;;;;;100.78;74.93;;;14.30;99.90;;;;;;5011255;28;20046;-44
2022/05/19 04:08:45;;;;;;;104.13;74.60;;;14.30;99.90;;;;;;5011958;28;20465;-45
2022/05/19 04:11:12;;;;;;;100.53;72.82;;;14.30;99.90;;;;;;5012136;28;20042;-45
2022/05/19 04:13:37;;;;;;;103.95;74.35;;;14.40;99.90;;;;;;5011634;28;20477;-44
2022/05/19 04:16:03;;;;;;;106.70;73.68;;;14.60;99.90;;;;;;5011486;28;20077;-44
2022/05/19 04:18:29;;;;;;;100.40;73.97;;;14.30;99.90;;;;;;5012062;28;20137;-44
2022/05/19 04:20:55;;;;;;;103.47;76.05;;;14.30;99.90;;;;;;5011592;28;20497;-44
2022/05/19 04:23:21;;;;;;;97.72;70.20;;;14.20;99.90;;;;;;5012342;28;20448;-45
2022/05/19 04:25:48;;;;;;;105.63;73.15;;;14.50;99.90;;;;;;5011894;28;20045;-45
2022/05/19 04:28:14;;;;;;;99.25;72.95;;;14.40;99.90;;;;;;5012237;28;20082;-44
2022/05/19 04:30:41;;;;;;;101.70;72.60;;;14.40;99.90;;;;;;5011723;28;20081;-45
2022/05/19 04:33:07;;;;;;;102.63;73.10;;;14.50;99.90;;;;;;5012260;28;20049;-45
2022/05/19 04:35:33;;;;;;;101.07;72.78;;;14.60;99.90;;;;;;5012339;28;20042;-44
2022/05/19 04:38:04;;;;;;;93.63;72.63;;;14.60;99.90;;;;;;5011242;28;20069;-44
2022/05/19 04:40:30;;;;;;;93.80;72.82;;;14.70;99.90;;;;;;5011595;28;20281;-45
2022/05/19 04:42:55;;;;;;;100.13;70.75;;;14.80;99.90;;;;;;5010245;28;20054;-46
2022/05/19 04:45:21;;;;;;;93.85;70.43;;;15.00;99.90;;;;;;5011753;28;20383;-45
2022/05/19 04:47:47;;;;;;;83.18;67.10;;;15.10;99.90;;;;;;5011084;28;20135;-45
2022/05/19 04:50:13;;;;;;;89.10;68.45;;;15.30;99.90;;;;;;5011057;28;20115;-44
2022/05/19 04:52:40;;;;;;;81.53;66.38;;;15.50;99.90;;;;;;5010983;28;20120;-44
2022/05/19 04:55:07;;;;;;;85.55;65.85;;;15.80;99.90;;;;;;5010456;28;20052;-44
2022/05/19 04:57:33;;;;;;;84.70;65.15;;;16.00;99.90;;;;;;5010852;28;20046;-44
2022/05/19 04:59:59;;;;;;;81.20;66.30;;;16.30;99.90;;;;;;5010412;28;20049;-44
2022/05/19 05:02:24;;;;;;;76.90;60.78;;;16.50;99.90;;;;;;5009340;28;20172;-46
2022/05/19 05:04:50;;;;;;;80.65;62.60;;;16.70;99.90;;;;;;5010977;28;20488;-44
2022/05/19 05:07:16;;;;;;;78.68;61.65;;;17.10;99.90;;;;;;5010152;28;20050;-45
2022/05/19 05:09:41;;;;;;;74.60;58.53;;;16.90;99.90;;;;;;5011030;28;20056;-44
2022/05/19 05:12:08;;;;;;;72.10;58.53;;;16.90;99.90;;;;;;5011524;28;20056;-44
2022/05/19 05:14:33;;;;;;;68.43;56.10;;;17.00;99.90;;;;;;5011355;28;20065;-45
2022/05/19 05:16:59;;;;;;;68.45;57.78;;;17.10;99.90;;;;;;5010903;28;20489;-45
2022/05/19 05:19:25;;;;;;;71.93;56.60;;;17.10;99.90;;;;;;5010979;28;20052;-45
2022/05/19 05:21:55;;;;;;;66.05;53.42;;;17.20;99.90;;;;;;5011158;28;20034;-45
2022/05/19 05:24:21;;;;;;;65.60;51.08;;;17.30;99.90;;;;;;5011050;28;20492;-45
2022/05/19 05:26:47;;;;;;;62.30;52.22;;;17.40;99.90;;;;;;5010396;28;20073;-45
2022/05/19 05:29:13;;;;;;;58.88;49.20;;;17.90;99.90;;;;;;5010939;28;20069;-45
2022/05/19 05:31:40;;;;;;;60.58;47.17;;;18.30;99.90;;;;;;5011043;28;20041;-45
2022/05/19 05:34:06;;;;;;;62.25;48.20;;;18.50;99.90;;;;;;5010869;28;20054;-45
2022/05/19 05:36:32;;;;;;;56.92;46.63;;;18.70;99.90;;;;;;5011093;28;20042;-44
2022/05/19 05:38:57;;;;;;;56.05;45.95;;;18.90;99.90;;;;;;5010418;28;20046;-45
2022/05/19 05:41:24;;;;;;;51.30;43.75;;;19.10;99.90;;;;;;5010065;28;20042;-44
2022/05/19 05:43:50;;;;;;;52.58;40.60;;;19.20;99.90;;;;;;5010105;28;20122;-45
2022/05/19 05:46:16;;;;;;;47.83;38.75;;;19.20;99.90;;;;;;5009891;28;20488;-45
2022/05/19 05:48:48;;;;;;;44.72;37.33;;;19.40;99.90;;;;;;5010342;28;20500;-45
2022/05/19 05:51:14;;;;;;;;;;;19.30;99.90;;;;;;5011317;28;20038;-45
2022/05/19 05:53:42;;;;;;;41.40;36.40;;;19.40;99.90;;;;;;5010093;28;19932;-44
2022/05/19 05:56:10;;;;;;;39.42;35.10;;;20.70;99.90;;;;;;5009232;28;20041;-46
2022/05/19 05:58:36;;;;;;;41.08;33.63;;;22.60;99.90;;;;;;5010638;28;20056;-45
2022/05/19 06:01:05;;;;;;;42.70;31.55;;;23.30;99.90;;;;;;5009661;28;20049;-45
2022/05/19 06:03:32;;;;;;;30.30;25.38;;;24.40;99.90;;;;;;5010470;28;20045;-47
2022/05/19 06:05:58;;;;;;;29.17;23.55;;;25.60;99.60;;;;;;5010159;28;20049;-45
2022/05/19 06:08:24;;;;;;;27.67;23.38;;;26.80;99.90;;;;;;5009304;28;20125;-46
2022/05/19 06:10:50;;;;;;;28.58;20.77;;;25.90;94.50;;;;;;5010303;28;20266;-47
2022/05/19 06:13:16;;;;;;;21.58;19.20;;;26.10;93.40;;;;;;5009513;28;20046;-45
2022/05/19 06:15:42;;;;;;;27.40;17.90;;;26.10;91.70;;;;;;5009872;28;20045;-45
2022/05/19 06:18:08;;;;;;;22.45;17.48;;;25.70;91.70;;;;;;5010047;28;20056;-44
2022/05/19 06:20:35;;;;;;;21.42;16.70;;;25.20;91.70;;;;;;5009767;28;20042;-45
2022/05/19 06:23:00;;;;;;;17.25;15.15;;;24.80;92.40;;;;;;5008443;28;20129;-46
2022/05/19 06:25:26;;;;;;;16.23;14.48;;;24.60;93.50;;;;;;5009250;28;20409;-47
2022/05/19 06:27:52;;;;;;;20.77;13.65;;;25.10;93.70;;;;;;5009632;28;20041;-45
2022/05/19 06:30:20;;;;;;;18.23;13.25;;;25.60;92.10;;;;;;5009806;28;20409;-46
2022/05/19 06:32:49;;;;;;;16.30;12.38;;;26.40;90.30;;;;;;5009594;28;20132;-44
2022/05/19 06:35:20;;;;;;;13.85;12.02;;;26.60;89.30;;;;;;5009133;28;20139;-44
2022/05/19 06:37:46;;;;;;;16.77;11.75;;;27.40;86.20;;;;;;5004278;28;20180;-42
2022/05/19 06:40:16;;;;;;;15.77;12.00;;;28.20;83.80;;;;;;5006506;28;20660;-42
2022/05/19 06:42:43;;;;;;;15.05;11.57;;;29.00;80.90;;;;;;5008886;28;20069;-43
2022/05/19 06:45:09;;;;;;;11.63;10.35;;;29.60;78.10;;;;;;5006920;28;20510;-43
2022/05/19 06:47:36;;;;;;;12.57;10.82;;;30.50;75.50;;;;;;5007964;28;20100;-46
2022/05/19 06:50:04;;;;;;;14.18;9.98;;;31.20;73.00;;;;;;5022536;28;20045;-43
2022/05/19 06:52:32;;;;;;;13.88;10.23;;;31.90;69.90;;;;;;5007529;28;20120;-42
2022/05/19 06:55:00;;;;;;;14.40;10.25;;;32.50;67.50;;;;;;5005956;28;20053;-40
2022/05/19 06:57:27;;;;;;;14.30;11.50;;;33.30;66.10;;;;;;5007301;28;20046;-45
2022/05/19 06:59:53;;;;;;;13.15;9.40;;;34.10;64.40;;;;;;5007710;28;20030;-38
2022/05/19 07:02:22;;;;;;;22.60;10.18;;;34.70;62.40;;;;;;5008045;28;20378;-41
2022/05/19 07:04:48;;;;;;;14.05;10.68;;;34.40;61.60;;;;;;5007859;28;20045;-40
2022/05/19 07:07:14;;;;;;;15.05;11.27;;;33.80;60.10;;;;;;5005878;28;20142;-38
2022/05/19 07:09:40;;;;;;;17.23;10.30;;;33.20;59.40;;;;;;5007229;28;20576;-42
2022/05/19 07:12:09;;;;;;;15.52;11.02;;;33.40;60.10;;;;;;5007306;28;20053;-39
2022/05/19 07:14:37;;;;;;;12.45;9.55;;;32.70;60.30;;;;;;5007327;28;20433;-39
2022/05/19 07:17:03;;;;;;;12.32;10.00;;;31.90;61.00;;;;;;5007628;28;20046;-42
2022/05/19 07:22:19;;;;;;;15.65;10.68;;;30.00;63.00;;;;;;5007151;28;20104;-41
2022/05/19 07:24:46;;;;;;;13.95;10.05;;;29.00;63.90;;;;;;5007624;28;20121;-39
2022/05/19 07:27:12;;;;;;;12.20;9.00;;;28.50;65.90;;;;;;5007893;28;20053;-42
2022/05/19 07:29:39;;;;;;;10.13;8.98;;;28.50;66.60;;;;;;5007427;28;20567;-40
2022/05/19 07:32:05;;;;;;;12.02;9.80;;;29.30;66.80;;;;;;5005999;28;20054;-40
2022/05/19 07:34:33;;;;;;;12.75;10.55;;;29.70;66.50;;;;;;5007644;28;20085;-42
2022/05/19 07:36:59;;;;;;;15.88;10.13;;;29.70;65.50;;;;;;5006613;28;20042;-42
2022/05/19 07:39:25;;;;;;;14.27;10.70;;;29.70;65.50;;;;;;5005669;28;20104;-40
2022/05/19 07:41:55;;;;;;;15.05;12.07;;;29.50;65.00;;;;;;5007410;28;20056;-41
2022/05/19 07:44:22;;;;;;;14.15;11.68;;;29.30;66.10;;;;;;5006934;28;20053;-40
2022/05/19 07:46:48;;;;;;;15.32;11.80;;;28.90;64.90;;;;;;5007359;28;20120;-40
2022/05/19 07:49:14;;;;;;;13.50;11.90;;;28.50;65.80;;;;;;5007183;28;20724;-41
2022/05/19 07:51:41;;;;;;;14.48;12.43;;;28.20;67.20;;;;;;5007452;28;20048;-40
2022/05/19 07:54:13;;;;;;;16.15;12.75;;;28.10;68.10;;;;;;5007138;28;20127;-41
2022/05/19 07:56:39;;;;;;;14.63;12.77;;;27.80;69.00;;;;;;5007403;28;20041;-40
2022/05/19 07:59:05;;;;;;;16.10;12.88;;;27.40;69.60;;;;;;5006914;28;20486;-40
2022/05/19 08:01:31;;;;;;;18.17;13.20;;;26.90;70.10;;;;;;5006792;28;20065;-40
2022/05/19 08:03:58;;;;;;;15.73;12.82;;;26.40;70.40;;;;;;5005930;28;20053;-39
2022/05/19 08:06:24;;;;;;;27.65;17.55;;;25.90;71.90;;;;;;5006711;28;20034;-41
2022/05/19 08:08:50;;;;;;;29.60;18.73;;;24.70;99.90;;;;;;5007369;28;20041;-39
2022/05/19 08:11:17;;;;;;;26.65;19.20;;;23.40;99.90;;;;;;5006588;28;20469;-39
2022/05/19 08:16:28;;;;;;;27.60;20.95;;;21.90;99.90;;;;;;5007462;28;20049;-39
2022/05/19 08:18:55;;;;;;;25.20;20.77;;;21.40;99.90;;;;;;5010632;28;20046;-38
2022/05/19 08:21:21;;;;;;;25.48;20.92;;;21.10;99.90;;;;;;4992569;28;20048;-38
2022/05/19 08:23:52;;;;;;;23.92;21.45;;;20.90;99.90;;;;;;5010771;28;20037;-39
2022/05/19 08:26:18;;;;;;;23.95;21.50;;;20.60;99.90;;;;;;5010251;28;20053;-47
2022/05/19 08:28:45;;;;;;;23.27;20.38;;;20.50;99.90;;;;;;5010681;28;20632;-46
2022/05/19 08:31:15;;;;;;;24.55;20.95;;;20.30;99.90;;;;;;5010603;28;20046;-43
2022/05/19 08:33:45;;;;;;;24.95;22.08;;;20.20;99.90;;;;;;5010532;28;20056;-42
2022/05/19 08:36:11;;;;;;;26.45;22.52;;;20.10;99.90;;;;;;5008263;28;20045;-42
2022/05/19 08:38:38;;;;;;;25.58;22.00;;;20.00;99.90;;;;;;5008397;28;20045;-43
2022/05/19 08:41:25;;;;;;;24.67;22.02;;;20.00;99.90;;;;;;5010236;28;20563;-43
2022/05/19 08:44:24;;;;;;;27.92;22.17;;;19.90;99.90;;;;;;5009349;28;20046;-44
2022/05/19 08:46:53;;;;;;;28.75;25.58;;;20.00;99.90;;;;;;5010891;28;20635;-45
2022/05/19 08:49:42;;;;;;;27.08;24.15;;;19.90;99.90;;;;;;5010256;28;20126;-44
2022/05/19 08:52:15;;;;;;;29.73;23.98;;;20.00;99.90;;;;;;5009275;28;20038;-54
2022/05/19 08:54:47;;;;;;;32.42;25.08;;;20.10;99.90;;;;;;5010953;28;20078;-45
2022/05/19 08:57:24;;;;;;;28.15;25.17;;;20.30;99.90;;;;;;5010636;28;20038;-55
2022/05/19 09:00:10;;;;;;;29.50;26.52;;;20.50;99.90;;;;;;5010715;28;20046;-44
2022/05/19 09:03:05;;;;;;;27.88;23.88;;;20.90;99.90;;;;;;5010732;28;20053;-43
2022/05/19 09:06:08;;;;;;;23.73;20.30;;;21.30;99.90;;;;;;5008718;28;20061;-44
2022/05/19 09:08:54;;;;;;;24.02;21.33;;;21.70;99.90;;;;;;5010230;28;20782;-54
2022/05/19 09:11:26;;;;;;;22.65;19.63;;;21.90;99.90;;;;;;5008709;28;20049;-53
2022/05/19 09:14:20;;;;;;;23.02;20.63;;;22.00;99.90;;;;;;5010070;28;20692;-52
2022/05/19 09:16:47;;;;;;;24.48;19.35;;;22.30;99.90;;;;;;5010122;28;20042;-55
2022/05/19 09:19:16;;;;;;;21.95;18.08;;;22.50;99.90;;;;;;5009651;28;20084;-50
2022/05/19 09:21:45;;;;;;;24.25;19.02;;;22.60;99.90;;;;;;5009899;28;20496;-50
2022/05/19 09:24:11;;;;;;;19.30;17.13;;;22.70;99.90;;;;;;5010010;28;20049;-43
2022/05/19 09:26:46;;;;;;;20.92;18.08;;;22.90;99.90;;;;;;5009777;28;20053;-44
2022/05/19 09:29:18;;;;;;;20.80;18.65;;;23.20;99.90;;;;;;5008005;28;20057;-39
2022/05/19 09:31:53;;;;;;;23.20;20.77;;;23.40;99.90;;;;;;5011290;28;20048;-39
2022/05/19 09:34:25;;;;;;;21.48;19.33;;;23.80;99.90;;;;;;5011132;28;20041;-39
2022/05/19 09:37:05;;;;;;;20.63;18.45;;;24.10;99.90;;;;;;5010132;28;20123;-39
2022/05/19 09:39:35;;;;;;;20.90;16.88;;;24.30;99.90;;;;;;5011145;28;20667;-40
2022/05/19 09:42:08;;;;;;;19.45;17.52;;;24.30;99.60;;;;;;5011729;28;20139;-39
2022/05/19 09:44:37;;;;;;;24.60;19.10;;;24.40;98.90;;;;;;5011350;28;20050;-39
2022/05/19 09:47:31;;;;;;;22.58;18.50;;;24.60;98.20;;;;;;5011295;28;20065;-39
2022/05/19 09:50:09;;;;;;;20.50;17.20;;;25.00;97.30;;;;;;5011357;28;20056;-39
2022/05/19 09:52:36;;;;;;;18.15;16.35;;;25.40;97.00;;;;;;5010877;28;20473;-40
2022/05/19 09:55:07;;;;;;;21.70;16.45;;;25.80;96.90;;;;;;5011122;28;20049;-39
2022/05/19 09:57:40;;;;;;;18.63;16.63;;;26.20;93.40;;;;;;5010660;28;20478;-39
2022/05/19 10:00:32;;;;;;;17.13;15.32;;;26.50;92.00;;;;;;5011358;28;20057;-40
2022/05/19 10:03:00;;;;;;;21.48;17.27;;;26.90;92.30;;;;;;5011174;28;20048;-41
2022/05/19 10:05:36;;;;;;;17.27;15.48;;;27.20;93.80;;;;;;5010740;28;20049;-39
2022/05/19 10:08:06;;;;;;;21.30;16.63;;;28.00;93.60;;;;;;5010915;28;20037;-40
2022/05/19 10:10:35;;;;;;;17.40;15.20;;;28.60;90.40;;;;;;5010373;28;20038;-39
2022/05/19 10:13:09;;;;;;;18.92;15.25;;;29.00;87.50;;;;;;5010305;28;20518;-40
2022/05/19 10:16:13;;;;;;;20.55;15.43;;;29.10;82.10;;;;;;5010640;28;20381;-39
2022/05/19 10:18:57;;;;;;;17.45;14.98;;;29.10;82.20;;;;;;5010561;28;20124;-40
2022/05/19 10:21:31;;;;;;;17.73;14.63;;;28.90;79.00;;;;;;5010257;28;20042;-39
2022/05/19 10:24:16;;;;;;;16.55;15.05;;;28.50;78.60;;;;;;5010272;28;20050;-42
2022/05/19 10:33:07;;;;;;;16.60;14.80;;;27.20;80.20;;;;;;5010747;28;20108;-41
2022/05/19 10:35:50;;;;;;;18.35;15.15;;;26.80;81.30;;;;;;5010444;28;20103;-40
2022/05/19 10:38:47;;;;;;;18.10;15.93;;;26.50;80.80;;;;;;5010429;28;20042;-40
2022/05/19 10:41:40;;;;;;;17.83;15.68;;;26.20;82.10;;;;;;5002601;28;20060;-41
2022/05/19 10:44:17;;;;;;;18.63;15.88;;;26.00;82.80;;;;;;5010615;28;20045;-41
2022/05/19 10:46:58;;;;;;;18.98;15.88;;;26.20;83.10;;;;;;5010276;28;20058;-40
2022/05/19 10:49:43;;;;;;;19.60;15.10;;;26.30;83.30;;;;;;5009989;28;20104;-40
2022/05/19 10:52:43;;;;;;;17.77;16.00;;;26.40;83.70;;;;;;5010153;28;20050;-40
2022/05/19 10:55:33;;;;;;;18.48;16.08;;;26.50;84.00;;;;;;5009608;28;20034;-42
2022/05/19 10:58:09;;;;;;;18.23;16.38;;;26.60;85.10;;;;;;5010314;28;20481;-41
2022/05/19 11:00:45;;;;;;;19.50;15.80;;;26.60;82.80;;;;;;5010302;28;20556;-41
2022/05/19 11:03:36;;;;;;;21.08;17.25;;;26.60;85.70;;;;;;5010697;28;20129;-41
2022/05/19 11:06:08;;;;;;;19.85;17.25;;;26.40;84.70;;;;;;5010539;28;20045;-40
2022/05/19 11:08:57;;;;;;;;;;;26.30;84.20;;;;;;5010591;28;20392;-40
2022/05/19 11:11:32;;;;;;;17.02;15.25;;;26.20;84.30;;;;;;5004485;28;20012;-43
2022/05/19 11:14:18;;;;;;;16.42;14.63;;;26.10;84.70;;;;;;5009790;28;20089;-40
2022/05/19 11:17:00;;;;;;;20.17;15.93;;;26.20;83.90;;;;;;4989064;28;20136;-40
2022/05/19 11:19:29;;;;;;;;;;;26.20;84.40;;;;;;5010280;28;20046;-40
2022/05/19 11:22:00;;;;;;;20.33;14.52;;;26.20;85.90;;;;;;5010062;28;19996;-41
2022/05/19 11:26:23;;;;;;;17.52;14.85;;;26.20;83.10;;;;;;5008147;28;20057;-40
2022/05/19 11:27:26;;;;;;;17.85;15.57;;;26.10;83.00;;;;;;5009829;28;20370;-41
2022/05/19 11:30:00;;;;;;;14.95;13.02;;;26.00;83.20;;;;;;5009787;28;20449;-40
2022/05/19 11:32:33;;;;;;;13.55;11.93;;;26.00;82.10;;;;;;5009719;28;20046;-41
2022/05/19 11:35:12;;;;;;;15.15;12.02;;;25.90;83.60;;;;;;5009604;28;20037;-41
2022/05/19 11:38:01;;;;;;;12.73;11.43;;;25.90;82.60;;;;;;5009236;28;20030;-41
2022/05/19 11:40:34;;;;;;;12.20;10.90;;;26.00;83.70;;;;;;5009396;28;20488;-41
2022/05/19 11:43:14;;;;;;;12.27;10.98;;;26.20;84.00;;;;;;5009523;28;20489;-41
2022/05/19 11:45:59;;;;;;;11.27;10.07;;;26.40;82.50;;;;;;5007839;28;20111;-41
2022/05/19 11:57:14;;;;;;;11.38;9.18;;;26.50;79.40;;;;;;5013569;28;20049;-40
2022/05/19 11:59:43;;;;;;;10.82;8.90;;;26.70;79.50;;;;;;5012513;28;20371;-41
2022/05/19 12:02:10;;;;;;;12.30;8.23;;;27.00;79.00;;;;;;5013428;28;20113;-41
2022/05/19 12:04:38;;;;;;;10.45;8.00;;;27.30;78.90;;;;;;5012657;28;20385;-41
2022/05/19 12:07:15;;;;;;;11.75;9.45;;;27.50;77.40;;;;;;5011788;28;20041;-40
2022/05/19 12:09:48;;;;;;;11.32;8.20;;;27.50;74.00;;;;;;5012754;28;20065;-40
2022/05/19 12:12:23;;;;;;;10.55;7.95;;;27.50;72.40;;;;;;5011613;28;20049;-41
2022/05/19 12:15:19;;;;;;;9.27;6.60;;;27.40;73.60;;;;;;5012751;28;20061;-41
2022/05/19 12:17:52;;;;;;;10.90;5.70;;;27.60;75.00;;;;;;5012917;28;20038;-42
2022/05/19 12:20:45;;;;;;;6.43;4.68;;;27.80;72.70;;;;;;5013091;28;20042;-41
2022/05/19 12:23:41;;;;;;;4.72;2.95;;;28.00;69.90;;;;;;5013112;28;20061;-41
2022/05/19 12:26:15;;;;;;;6.90;2.47;;;28.00;67.90;;;;;;5012950;28;20046;-40
2022/05/19 12:29:23;;;;;;;5.65;3.60;;;28.10;69.40;;;;;;5012218;28;20060;-42
2022/05/19 12:31:59;;;;;;;5.30;2.38;;;28.20;66.60;;;;;;5012831;28;20038;-42
2022/05/19 12:34:39;;;;;;;3.05;1.73;;;28.30;68.10;;;;;;5012340;28;20085;-41
2022/05/19 12:37:15;;;;;;;2.58;1.08;;;28.40;68.90;;;;;;5012367;28;20111;-41
2022/05/19 12:39:51;;;;;;;3.03;1.00;;;28.40;67.70;;;;;;5012170;28;20058;-42
2022/05/19 12:42:41;;;;;;;3.05;1.08;;;28.20;67.20;;;;;;5012438;28;20358;-41
2022/05/19 12:45:25;;;;;;;2.78;0.80;;;27.90;65.20;;;;;;5004429;28;20489;-42
2022/05/19 12:47:59;;;;;;;3.47;1.02;;;27.60;66.20;;;;;;5012018;28;20058;-42
2022/05/19 12:50:40;;;;;;;4.43;1.50;;;27.50;66.70;;;;;;5011859;28;20033;-41
2022/05/19 12:53:25;;;;;;;4.50;1.27;;;27.20;69.30;;;;;;5012109;28;20050;-41
2022/05/19 12:55:53;;;;;;;2.88;1.27;;;26.90;68.50;;;;;;5012318;28;20100;-40
2022/05/19 12:58:34;;;;;;;4.85;1.20;;;26.60;71.10;;;;;;5010691;28;20037;-43
2022/05/19 13:01:16;;;;;;;4.80;1.33;;;26.30;71.90;;;;;;5011954;28;20046;-42
2022/05/19 13:03:59;;;;;;;5.88;1.48;;;26.30;72.50;;;;;;5011738;28;20045;-42
2022/05/19 13:06:25;;;;;;;4.38;1.30;;;25.70;73.00;;;;;;5011936;28;20119;-40
2022/05/19 13:08:54;;;;;;;2.70;1.05;;;25.40;74.10;;;;;;5012054;28;20049;-41
2022/05/19 13:11:30;;;;;;;7.63;1.63;;;25.10;74.30;;;;;;5012238;28;20048;-41
2022/05/19 13:14:05;;;;;;;5.88;1.50;;;24.90;75.90;;;;;;5012070;28;20046;-41